メインページ
METAR-TAF:

METAR-TAF

空港 :

ウンベルト・デルガード空港

リスボン, ポルトガル

緯度: 38-46N, 経度: 009-08W, 海抜: 114m

現時点の気象観測

当レポートは21分前の09:00(UTC)に作成
の風 5kt、北/北西から北東の間で変化する
気温 26°C
湿度 54%
気圧 1016 hPa
視程10km以上
1,500メートル以下は雲なし、積乱雲なし

METAR: LPPT 200900Z 01005KT 330V050 CAVOK 26/16 Q1016

時間: 10:21 (09:21 UTC)

予報

当レポートは4時間21分前の05:00(UTC)に作成
予報は20日の 06時(UTC)から 21日の 12時(UTC)まで有効
変向風 3kt
視程10km以上
1,500メートル以下は雲なし、積乱雲なし
20日の 09時(UTC)から 20日の 11時(UTC)まで徐々に
の風 5kt
視程10km以上
高度4000ftの雲はほとんどない
20日の 15時(UTC)から 20日の 18時(UTC)まで徐々に
北/北西の風 8kt
確率 30% :
20日の 15時(UTC)から 21日の 12時(UTC)まで一時的に
視程: 5000m
高度2000ftの雲は散在している
高度3500ftの雲はほとんどない, 積乱雲.
激しい雷雨, 雨
21日の 03時(UTC)から 21日の 05時(UTC)まで徐々に
変向風 3kt
21日の 08時(UTC)から 21日の 10時(UTC)まで徐々に
東/北東の風 8kt

TAF: LPPT 200500Z 2006/2112 VRB03KT CAVOK BECMG 2009/2011 09005KT 9999 FEW040 BECMG 2015/2018 33008KT PROB30 TEMPO 2015/2112 5000 TSRA SCT020 FEW035CB BECMG 2103/2105 VRB03KT BECMG 2108/2110 06008KT

4,000以上の空港の気象観測と天気予報(METAR報とTAF報)

利用可能な観測所は地図上に黄色い丸と赤い丸で示す。

丸の上にカーソルを重ねると観測所名を参照できる。

次にクリックすると気象観測と天気予報を参照できる。

マップの切り替え:黒色「×」印の緑ボタンをクリックして拡大、「-」印の緑ボタンをクリックして縮小、緑色の三角印をクリックして隣りの地図に切り替え


METAR-TAF: